Time;durP1;ratioP1;P1;durP2;ratioP2;P2;SDS_P1;SDS_P2;PMS_P1;PMS_P2;Temp;Humidity;BMP_temperature;BMP_pressure;BME280_temperature;BME280_humidity;BME280_pressure;Samples;Min_cycle;Max_cycle;Signal;HPM_P1;HPM_P2
2023/10/22 00:02:40;;;;;;;6.05;1.50;;;8.10;99.90;;;;;;6298087;28;20481;-82
2023/10/22 00:05:41;;;;;;;2.85;1.80;;;8.20;99.90;;;;;;6298432;28;20040;-81
2023/10/22 00:08:44;;;;;;;2.88;1.58;;;8.30;99.90;;;;;;6292500;28;20142;-80
2023/10/22 00:11:46;;;;;;;2.45;1.60;;;8.30;99.90;;;;;;6298995;28;20040;-81
2023/10/22 00:14:48;;;;;;;1.50;1.15;;;8.30;99.90;;;;;;6298935;28;20502;-81
2023/10/22 00:17:49;;;;;;;3.75;0.93;;;8.40;99.90;;;;;;6298390;28;20402;-81
2023/10/22 00:20:51;;;;;;;1.48;1.38;;;8.50;99.90;;;;;;6298897;28;20120;-80
2023/10/22 00:23:54;;;;;;;4.40;1.30;;;8.40;99.90;;;;;;6298738;28;20047;-78
2023/10/22 00:26:56;;;;;;;3.22;1.42;;;8.40;99.90;;;;;;6298907;28;20056;-81
2023/10/22 00:29:58;;;;;;;3.22;1.48;;;8.30;99.90;;;;;;6298433;28;20465;-80
2023/10/22 00:32:59;;;;;;;5.57;1.70;;;8.30;99.90;;;;;;6297977;28;20336;-78
2023/10/22 00:36:01;;;;;;;3.90;1.35;;;8.30;99.90;;;;;;6297596;28;20650;-79
2023/10/22 00:39:06;;;;;;;2.72;1.30;;;8.40;99.90;;;;;;6297027;28;20127;-79
2023/10/22 00:42:08;;;;;;;3.90;1.75;;;8.40;99.90;;;;;;6297890;28;20044;-79
2023/10/22 00:45:10;;;;;;;10.00;1.40;;;8.50;99.90;;;;;;6297751;28;20140;-79
2023/10/22 00:48:12;;;;;;;6.03;1.40;;;8.60;99.90;;;;;;6296942;28;20044;-78
2023/10/22 00:51:15;;;;;;;1.42;0.65;;;8.70;99.90;;;;;;6297782;28;20041;-78
2023/10/22 00:54:19;;;;;;;2.05;1.40;;;8.80;99.90;;;;;;6298265;28;20047;-81
2023/10/22 00:57:22;;;;;;;3.75;1.52;;;8.90;99.90;;;;;;6296393;28;20046;-80
2023/10/22 01:00:26;;;;;;;4.05;1.20;;;9.00;99.90;;;;;;6296856;28;20132;-81
2023/10/22 01:03:28;;;;;;;5.28;1.25;;;9.10;99.90;;;;;;6297023;28;20048;-81
2023/10/22 01:06:30;;;;;;;2.50;1.25;;;9.10;99.90;;;;;;6297084;28;20048;-81
2023/10/22 01:09:34;;;;;;;1.45;1.10;;;9.10;99.90;;;;;;6296913;28;20091;-79
2023/10/22 01:12:38;;;;;;;4.75;1.42;;;9.20;99.90;;;;;;6297569;28;20055;-79
2023/10/22 01:15:39;;;;;;;6.45;1.27;;;9.30;99.90;;;;;;6297190;28;20040;-81
2023/10/22 01:18:41;;;;;;;1.88;1.25;;;9.30;99.90;;;;;;6296742;28;20147;-80
2023/10/22 01:21:43;;;;;;;3.22;1.55;;;9.40;99.90;;;;;;6297431;28;20059;-80
2023/10/22 01:24:46;;;;;;;1.27;0.77;;;9.50;99.90;;;;;;6296146;28;20693;-80
2023/10/22 01:27:47;;;;;;;1.77;1.00;;;9.70;99.90;;;;;;6297722;28;20045;-80
2023/10/22 01:30:49;;;;;;;7.47;2.05;;;10.00;99.90;;;;;;6296880;28;20052;-80
2023/10/22 01:33:52;;;;;;;1.95;1.33;;;10.10;99.90;;;;;;6297091;28;20075;-79
2023/10/22 01:36:54;;;;;;;1.95;1.13;;;10.20;99.90;;;;;;6296529;28;20040;-80
2023/10/22 01:39:59;;;;;;;1.25;1.05;;;10.30;99.90;;;;;;6296305;28;20402;-80
2023/10/22 01:43:00;;;;;;;4.18;1.40;;;10.30;99.90;;;;;;6296581;28;20060;-80
2023/10/22 01:46:02;;;;;;;1.88;1.02;;;10.40;99.90;;;;;;6297625;28;20049;-80
2023/10/22 01:49:04;;;;;;;3.20;1.23;;;10.40;99.90;;;;;;6297249;28;20048;-77
2023/10/22 01:52:06;;;;;;;1.45;1.10;;;10.40;99.90;;;;;;6303815;28;20044;-80
2023/10/22 01:55:09;;;;;;;0.85;0.85;;;10.30;99.90;;;;;;6303510;28;20055;-80
2023/10/22 01:58:11;;;;;;;2.28;1.13;;;10.30;99.90;;;;;;6302253;28;20071;-81
2023/10/22 02:01:26;;;;;;;4.60;1.10;;;10.40;99.90;;;;;;6302419;28;20048;-80
2023/10/22 02:04:30;;;;;;;1.38;0.90;;;10.50;99.90;;;;;;6301907;28;20048;-80
2023/10/22 02:07:32;;;;;;;0.90;0.65;;;10.60;99.90;;;;;;6301145;28;20393;-79
2023/10/22 02:10:35;;;;;;;2.58;1.20;;;10.70;99.90;;;;;;6297177;28;20044;-78
2023/10/22 02:13:37;;;;;;;2.63;1.23;;;10.80;99.90;;;;;;6301493;28;20139;-80
2023/10/22 02:16:39;;;;;;;2.65;0.85;;;10.90;99.90;;;;;;6301291;28;20049;-80
2023/10/22 02:19:41;;;;;;;3.40;1.20;;;10.90;99.90;;;;;;6300455;28;20490;-80
2023/10/22 02:22:42;;;;;;;4.32;1.17;;;10.90;99.90;;;;;;6292010;28;20658;-79
2023/10/22 02:25:45;;;;;;;0.88;0.85;;;11.00;99.90;;;;;;6301900;28;20406;-78
2023/10/22 02:28:47;;;;;;;5.05;1.15;;;11.00;99.90;;;;;;6300091;28;20051;-80
2023/10/22 02:31:49;;;;;;;1.38;1.27;;;11.00;99.90;;;;;;6300447;28;20045;-81
2023/10/22 02:34:52;;;;;;;1.33;1.05;;;11.00;99.90;;;;;;6300124;28;20051;-79
2023/10/22 02:37:53;;;;;;;9.65;1.42;;;11.10;99.90;;;;;;6301284;28;20394;-81
2023/10/22 02:40:56;;;;;;;2.17;1.40;;;11.00;99.90;;;;;;6301484;28;20052;-81
2023/10/22 02:43:59;;;;;;;2.08;1.08;;;11.00;99.90;;;;;;6300746;28;20041;-82
2023/10/22 02:47:01;;;;;;;2.05;1.85;;;11.00;99.90;;;;;;6299711;28;20066;-79
2023/10/22 02:50:04;;;;;;;3.22;1.33;;;11.00;99.90;;;;;;6300430;28;20062;-81
2023/10/22 02:53:06;;;;;;;1.02;0.77;;;11.00;99.90;;;;;;6299707;28;20575;-81
2023/10/22 02:56:09;;;;;;;1.35;1.17;;;10.90;99.90;;;;;;6299640;28;20051;-81
2023/10/22 02:59:11;;;;;;;2.10;1.15;;;10.90;99.90;;;;;;6299297;28;20047;-81
2023/10/22 03:02:13;;;;;;;1.13;1.02;;;10.90;99.90;;;;;;6300313;28;20534;-78
2023/10/22 03:05:14;;;;;;;1.55;0.93;;;10.80;99.90;;;;;;6299037;28;20414;-80
2023/10/22 03:08:16;;;;;;;3.05;0.90;;;10.80;99.90;;;;;;6299687;28;20412;-81
2023/10/22 03:11:20;;;;;;;2.55;1.27;;;10.70;99.90;;;;;;6300004;28;20044;-80
2023/10/22 03:14:22;;;;;;;0.98;0.90;;;10.70;99.90;;;;;;6299477;28;20053;-80
2023/10/22 03:17:24;;;;;;;2.78;0.90;;;10.70;99.90;;;;;;6298360;28;20040;-80
2023/10/22 03:20:25;;;;;;;3.95;1.08;;;10.70;99.90;;;;;;6298897;28;20052;-79
2023/10/22 03:23:27;;;;;;;0.82;0.82;;;10.80;99.90;;;;;;6299524;28;20047;-81
2023/10/22 03:26:30;;;;;;;1.75;1.15;;;10.80;99.90;;;;;;6298738;28;20043;-80
2023/10/22 03:29:32;;;;;;;3.42;1.00;;;10.80;99.90;;;;;;6299307;28;20045;-81
2023/10/22 03:32:34;;;;;;;1.60;1.00;;;10.90;99.90;;;;;;6298086;28;20130;-79
2023/10/22 03:35:36;;;;;;;1.45;1.00;;;11.00;99.90;;;;;;6298410;28;20044;-81
2023/10/22 03:38:38;;;;;;;2.30;1.30;;;11.00;99.90;;;;;;6297994;28;20129;-79
2023/10/22 03:41:41;;;;;;;4.13;1.08;;;11.00;99.90;;;;;;6298643;28;20058;-81
2023/10/22 03:44:43;;;;;;;6.40;1.33;;;11.00;99.90;;;;;;6298049;28;20041;-82
2023/10/22 03:47:44;;;;;;;0.70;0.70;;;11.10;99.90;;;;;;6298853;28;20071;-81
2023/10/22 03:50:46;;;;;;;1.38;1.27;;;11.10;99.90;;;;;;6298449;28;20059;-81
2023/10/22 03:53:48;;;;;;;1.52;0.75;;;11.20;99.90;;;;;;6290673;28;20512;-79
2023/10/22 03:56:51;;;;;;;6.03;0.80;;;11.20;99.90;;;;;;6297974;28;20072;-81
2023/10/22 03:59:53;;;;;;;4.22;1.00;;;11.20;99.90;;;;;;6298123;28;20055;-80
2023/10/22 04:02:55;;;;;;;2.92;0.90;;;11.20;99.90;;;;;;6298317;28;20044;-80
2023/10/22 04:05:57;;;;;;;1.85;1.08;;;11.20;99.90;;;;;;6296376;28;20049;-79
2023/10/22 04:08:59;;;;;;;0.93;0.70;;;11.20;99.90;;;;;;6298226;28;20072;-79
2023/10/22 04:12:02;;;;;;;0.90;0.90;;;11.20;99.90;;;;;;6298004;28;20046;-80
2023/10/22 04:15:04;;;;;;;2.40;0.77;;;11.10;99.90;;;;;;6297685;28;20052;-80
2023/10/22 04:18:06;;;;;;;3.72;0.85;;;11.10;99.90;;;;;;6298219;28;20049;-81
2023/10/22 04:21:13;;;;;;;0.85;0.80;;;11.10;99.90;;;;;;6297876;28;20509;-80
2023/10/22 04:24:15;;;;;;;3.22;1.23;;;11.10;99.90;;;;;;6298151;28;20036;-80
2023/10/22 04:27:18;;;;;;;0.70;0.63;;;11.10;99.90;;;;;;6298705;28;20040;-79
2023/10/22 04:30:20;;;;;;;2.85;1.00;;;11.10;99.90;;;;;;6298571;28;20051;-78
2023/10/22 04:33:21;;;;;;;3.35;0.73;;;11.10;99.90;;;;;;6297656;28;20043;-78
2023/10/22 04:36:23;;;;;;;2.30;0.75;;;11.00;99.90;;;;;;6296855;28;20036;-80
2023/10/22 04:39:25;;;;;;;4.22;1.02;;;11.00;99.90;;;;;;6297175;28;20460;-79
2023/10/22 04:42:29;;;;;;;2.60;1.10;;;11.10;99.90;;;;;;6297568;28;20044;-79
2023/10/22 04:45:30;;;;;;;0.70;0.70;;;11.00;99.90;;;;;;6297122;28;20056;-80
2023/10/22 04:48:32;;;;;;;2.30;1.08;;;11.00;99.90;;;;;;6296658;28;20524;-80
2023/10/22 04:51:34;;;;;;;3.63;1.38;;;11.00;99.90;;;;;;6297706;28;20063;-79
2023/10/22 04:54:36;;;;;;;1.10;1.00;;;11.00;99.90;;;;;;6296606;28;20554;-80
2023/10/22 04:57:39;;;;;;;0.75;0.70;;;10.90;99.90;;;;;;6297140;28;20474;-80
2023/10/22 05:00:40;;;;;;;0.57;0.57;;;10.90;99.90;;;;;;6296453;28;20060;-79
2023/10/22 05:03:42;;;;;;;1.00;0.63;;;10.90;99.90;;;;;;6297575;28;20051;-78
2023/10/22 05:06:44;;;;;;;1.70;0.80;;;10.80;99.90;;;;;;6296597;28;20048;-79
2023/10/22 05:09:45;;;;;;;8.38;1.88;;;10.80;99.90;;;;;;6297231;28;20050;-79
2023/10/22 05:12:48;;;;;;;2.33;0.70;;;10.80;99.90;;;;;;6297377;28;20044;-79
2023/10/22 05:15:51;;;;;;;1.05;0.55;;;10.80;99.90;;;;;;6297263;28;20055;-80
2023/10/22 05:18:53;;;;;;;2.33;0.98;;;10.90;99.90;;;;;;6296381;28;20051;-81
2023/10/22 05:21:55;;;;;;;1.30;0.65;;;10.90;99.90;;;;;;6297296;28;20063;-79
2023/10/22 05:24:57;;;;;;;1.48;1.20;;;10.90;99.90;;;;;;6299264;28;20044;-78
2023/10/22 05:28:00;;;;;;;2.15;1.13;;;10.90;99.90;;;;;;6300987;28;20059;-81
2023/10/22 05:31:02;;;;;;;2.25;0.90;;;11.00;99.90;;;;;;6301829;28;20056;-80
2023/10/22 05:34:03;;;;;;;4.40;0.90;;;11.10;99.90;;;;;;6301748;28;20215;-80
2023/10/22 05:37:06;;;;;;;2.40;0.93;;;11.00;99.90;;;;;;6301451;28;20062;-81
2023/10/22 05:40:11;;;;;;;2.22;1.17;;;11.10;99.90;;;;;;6301240;28;20100;-81
2023/10/22 05:43:15;;;;;;;2.72;1.20;;;11.00;99.90;;;;;;6301414;28;20051;-81
2023/10/22 05:46:16;;;;;;;4.72;1.13;;;10.90;99.90;;;;;;6301564;28;20048;-80
2023/10/22 05:49:20;;;;;;;1.95;0.60;;;10.90;99.90;;;;;;6300985;28;20047;-81
2023/10/22 05:52:24;;;;;;;1.15;0.73;;;10.80;99.90;;;;;;6301117;28;20048;-78
2023/10/22 05:55:25;;;;;;;4.85;0.77;;;10.80;99.90;;;;;;6300531;28;20402;-79
2023/10/22 05:58:28;;;;;;;0.60;0.60;;;10.80;99.90;;;;;;6315216;22;20447;-76
2023/10/22 06:01:30;;;;;;;3.38;0.73;;;10.80;99.90;;;;;;6273725;28;20519;-76
2023/10/22 06:04:32;;;;;;;1.08;0.95;;;10.80;99.90;;;;;;6274290;28;20424;-75
2023/10/22 06:07:34;;;;;;;0.75;0.70;;;10.80;99.90;;;;;;6273375;28;20663;-75
2023/10/22 06:10:40;;;;;;;3.80;0.70;;;10.80;99.90;;;;;;6273845;28;20056;-76
2023/10/22 06:13:43;;;;;;;5.18;2.13;;;10.90;99.90;;;;;;6270260;28;20418;-74
2023/10/22 06:16:45;;;;;;;2.03;1.08;;;11.00;99.90;;;;;;6248849;28;20055;-76
2023/10/22 06:19:46;;;;;;;1.52;0.90;;;11.20;99.90;;;;;;6248349;28;20422;-74
2023/10/22 06:22:48;;;;;;;1.90;0.82;;;11.30;99.90;;;;;;6256745;28;20049;-74
2023/10/22 06:25:50;;;;;;;1.92;1.75;;;11.40;99.90;;;;;;6256592;28;20453;-74
2023/10/22 06:28:53;;;;;;;2.90;0.88;;;11.60;99.90;;;;;;6248730;28;20053;-76
2023/10/22 06:31:55;;;;;;;2.38;0.73;;;11.80;99.90;;;;;;6262110;28;20588;-73
2023/10/22 06:34:56;;;;;;;2.53;0.82;;;12.10;99.90;;;;;;6247903;28;20041;-74
2023/10/22 06:37:58;;;;;;;2.63;1.05;;;12.30;99.90;;;;;;6248561;28;20082;-76
2023/10/22 06:41:00;;;;;;;2.78;1.27;;;12.60;99.90;;;;;;6262883;28;20049;-75
2023/10/22 06:44:03;;;;;;;46.50;23.60;;;12.80;99.90;;;;;;6271067;28;20116;-75
2023/10/22 06:47:05;;;;;;;2.22;2.03;;;13.10;99.90;;;;;;6248415;28;20042;-74
2023/10/22 06:50:08;;;;;;;4.55;2.80;;;13.40;99.90;;;;;;6258006;28;20053;-77
2023/10/22 06:53:10;;;;;;;2.70;1.30;;;13.60;99.90;;;;;;6231699;28;20510;-76
2023/10/22 06:56:12;;;;;;;1.92;0.75;;;13.80;99.90;;;;;;6255909;28;20041;-75
2023/10/22 06:59:15;;;;;;;1.02;0.90;;;14.00;99.90;;;;;;6259284;28;20053;-75
2023/10/22 07:02:17;;;;;;;1.77;0.65;;;14.00;99.90;;;;;;6258022;28;20052;-75
2023/10/22 07:05:19;;;;;;;1.48;0.82;;;14.00;99.90;;;;;;6254253;28;20461;-75
2023/10/22 07:08:21;;;;;;;25.40;12.73;;;13.90;99.90;;;;;;6262764;28;20037;-77
2023/10/22 07:11:23;;;;;;;5.55;2.03;;;13.80;99.90;;;;;;6258703;28;20041;-77
2023/10/22 07:14:27;;;;;;;1.90;1.10;;;13.70;99.90;;;;;;6247695;28;20048;-76
2023/10/22 07:17:28;;;;;;;6.10;3.10;;;13.60;99.90;;;;;;6256009;28;20038;-77
2023/10/22 07:20:30;;;;;;;1.40;1.05;;;13.50;99.90;;;;;;6250628;28;20518;-75
2023/10/22 07:23:32;;;;;;;3.47;0.95;;;13.40;99.90;;;;;;6255431;28;20498;-76
2023/10/22 07:26:33;;;;;;;4.40;1.05;;;13.30;99.90;;;;;;6250796;28;20056;-77
2023/10/22 07:29:37;;;;;;;4.18;1.15;;;13.20;99.90;;;;;;6259770;28;20048;-76
2023/10/22 07:32:38;;;;;;;2.45;0.80;;;13.10;99.90;;;;;;6247253;28;20046;-76
2023/10/22 07:35:40;;;;;;;3.58;0.70;;;13.00;99.90;;;;;;6255569;28;20092;-76
2023/10/22 07:38:42;;;;;;;1.35;0.93;;;13.00;99.90;;;;;;6277316;28;20095;-76
2023/10/22 07:41:43;;;;;;;3.03;0.80;;;13.00;99.90;;;;;;6257715;28;20056;-77
2023/10/22 07:44:50;;;;;;;3.55;2.47;;;13.20;99.90;;;;;;6266802;28;20387;-77
2023/10/22 07:47:52;;;;;;;4.10;3.28;;;13.50;99.90;;;;;;6247917;28;20438;-76
2023/10/22 07:50:53;;;;;;;3.53;0.73;;;13.80;99.90;;;;;;6261322;28;20041;-77
2023/10/22 07:53:55;;;;;;;0.93;0.77;;;14.00;99.90;;;;;;6253426;28;20429;-76
2023/10/22 07:56:58;;;;;;;6.15;3.13;;;14.00;99.90;;;;;;6246718;28;20065;-78
2023/10/22 08:00:01;;;;;;;4.65;3.00;;;14.30;99.90;;;;;;6253732;28;20073;-76
2023/10/22 08:03:03;;;;;;;7.53;5.45;;;14.40;99.90;;;;;;6248411;28;20048;-78
2023/10/22 08:06:06;;;;;;;1.67;1.58;;;14.60;99.90;;;;;;6258008;28;20049;-76
2023/10/22 08:09:08;;;;;;;2.88;2.50;;;15.00;99.90;;;;;;6258713;28;20486;-78
2023/10/22 08:12:09;;;;;;;3.75;1.23;;;15.40;99.90;;;;;;6248572;28;20052;-77
2023/10/22 08:15:13;;;;;;;5.30;2.92;;;15.90;99.90;;;;;;6252202;28;20043;-77
2023/10/22 08:18:14;;;;;;;13.25;9.63;;;16.40;99.90;;;;;;6257947;28;20045;-77
2023/10/22 08:21:17;;;;;;;2.80;2.60;;;16.90;99.90;;;;;;6258204;28;20522;-77
2023/10/22 08:24:18;;;;;;;2.38;1.40;;;17.20;99.90;;;;;;6252790;28;20045;-77
2023/10/22 08:27:20;;;;;;;4.95;1.45;;;17.60;99.90;;;;;;6257226;28;20041;-76
2023/10/22 08:30:23;;;;;;;0.95;0.45;;;17.80;99.90;;;;;;6251490;28;20053;-76
2023/10/22 08:33:25;;;;;;;2.97;0.80;;;17.80;99.90;;;;;;6254694;28;20037;-76
2023/10/22 08:36:27;;;;;;;1.42;0.90;;;18.00;99.90;;;;;;6250781;28;20410;-77
2023/10/22 08:39:29;;;;;;;2.97;0.88;;;18.20;99.90;;;;;;6260205;28;20399;-76
2023/10/22 08:42:31;;;;;;;1.85;0.93;;;18.40;99.90;;;;;;6262232;28;20049;-77
2023/10/22 08:45:34;;;;;;;3.03;0.90;;;18.80;99.90;;;;;;6261221;28;20047;-77
2023/10/22 08:48:37;;;;;;;1.63;0.63;;;18.80;99.90;;;;;;6265100;28;20041;-77
2023/10/22 08:51:39;;;;;;;2.42;1.52;;;18.60;99.90;;;;;;6263478;28;20041;-77
2023/10/22 08:54:41;;;;;;;1.05;0.73;;;18.20;99.90;;;;;;6261239;28;20042;-78
2023/10/22 08:57:43;;;;;;;3.15;1.23;;;17.90;99.90;;;;;;6266791;28;20045;-78
2023/10/22 09:00:47;;;;;;;1.60;0.65;;;17.70;99.90;;;;;;6274902;28;20175;-77
2023/10/22 09:03:49;;;;;;;3.75;0.93;;;17.80;99.90;;;;;;6266496;28;20045;-76
2023/10/22 09:06:53;;;;;;;1.95;0.73;;;17.90;99.90;;;;;;6266287;28;20045;-76
2023/10/22 09:09:55;;;;;;;5.18;0.90;;;18.30;99.90;;;;;;6268702;28;20064;-76
2023/10/22 09:13:10;;;;;;;1.08;0.55;;;18.70;99.90;;;;;;6261841;28;20502;-76
2023/10/22 09:16:28;;;;;;;4.78;1.13;;;19.00;99.80;;;;;;6254048;28;20049;-76
2023/10/22 09:19:36;;;;;;;4.80;1.75;;;19.40;98.90;;;;;;6254296;28;20053;-77
2023/10/22 09:22:38;;;;;;;3.08;0.65;;;19.50;98.00;;;;;;6263919;28;20052;-76
2023/10/22 09:25:40;;;;;;;3.15;1.92;;;19.80;97.70;;;;;;6266387;28;20142;-78
2023/10/22 09:28:42;;;;;;;3.85;0.98;;;19.90;96.20;;;;;;6262366;28;20425;-76
2023/10/22 09:31:52;;;;;;;3.15;0.80;;;19.90;96.10;;;;;;6265952;28;20421;-78
2023/10/22 09:34:53;;;;;;;5.45;2.03;;;20.10;95.40;;;;;;6260593;28;20125;-76
2023/10/22 09:37:58;;;;;;;1.85;0.88;;;20.30;95.10;;;;;;6266359;28;20038;-76
2023/10/22 09:41:00;;;;;;;2.20;1.50;;;20.40;94.10;;;;;;6263490;28;20441;-76
2023/10/22 09:44:02;;;;;;;4.53;1.00;;;20.30;94.00;;;;;;6258540;28;20051;-76
2023/10/22 09:47:07;;;;;;;4.15;1.20;;;20.40;93.50;;;;;;6263422;28;20041;-77
2023/10/22 09:50:12;;;;;;;5.00;2.08;;;20.50;92.80;;;;;;6262429;28;20060;-76
2023/10/22 09:53:17;;;;;;;2.70;1.50;;;20.60;92.10;;;;;;6259610;28;20509;-77
2023/10/22 09:56:20;;;;;;;8.05;1.40;;;20.50;91.30;;;;;;6274604;28;20048;-77
2023/10/22 09:59:23;;;;;;;4.28;1.27;;;20.40;91.10;;;;;;6264059;28;20037;-76
2023/10/22 10:02:27;;;;;;;2.72;2.45;;;20.40;90.90;;;;;;6266259;28;20049;-77
2023/10/22 10:05:29;;;;;;;4.82;1.17;;;20.50;90.90;;;;;;6265778;28;20037;-75
2023/10/22 10:08:30;;;;;;;4.38;0.98;;;20.90;90.90;;;;;;6261174;28;20045;-77
2023/10/22 10:11:33;;;;;;;4.47;0.80;;;21.40;90.10;;;;;;6265245;28;20041;-76
2023/10/22 10:14:41;;;;;;;4.53;0.88;;;21.60;89.10;;;;;;6180819;28;20051;-76
2023/10/22 10:17:52;;;;;;;1.42;1.05;;;22.00;87.50;;;;;;6242344;28;20095;-76
2023/10/22 10:20:54;;;;;;;4.65;2.13;;;22.20;86.80;;;;;;6244309;28;20533;-77
2023/10/22 10:24:22;;;;;;;4.68;1.33;;;22.20;86.10;;;;;;6251765;28;20052;-77
2023/10/22 10:27:25;;;;;;;1.97;0.90;;;22.30;85.30;;;;;;6227590;28;20042;-78
2023/10/22 10:30:27;;;;;;;2.10;0.98;;;22.30;85.20;;;;;;6242108;28;20504;-79
2023/10/22 10:34:00;;;;;;;4.80;1.40;;;22.10;83.30;;;;;;6248289;28;20045;-78
2023/10/22 10:37:12;;;;;;;1.63;1.25;;;21.90;84.10;;;;;;6252496;28;20055;-77
2023/10/22 10:40:43;;;;;;;3.65;1.42;;;21.80;83.50;;;;;;6245216;28;20186;-77
2023/10/22 10:44:08;;;;;;;6.38;1.80;;;21.90;83.90;;;;;;6255121;28;20095;-78
2023/10/22 10:47:31;;;;;;;4.43;1.65;;;21.90;83.00;;;;;;6240901;28;20046;-77
2023/10/22 10:50:34;;;;;;;2.88;0.93;;;22.30;83.00;;;;;;6244304;28;20774;-78
2023/10/22 10:54:12;;;;;;;5.47;2.30;;;22.70;81.30;;;;;;6241764;28;20050;-78
2023/10/22 10:57:14;;;;;;;9.63;1.75;;;22.50;79.40;;;;;;6237164;28;20064;-78
2023/10/22 11:00:20;;;;;;;6.28;3.75;;;22.60;80.30;;;;;;6242398;28;20521;-78
2023/10/22 11:03:22;;;;;;;3.28;1.45;;;22.80;79.70;;;;;;6238035;28;20068;-78
2023/10/22 11:06:25;;;;;;;6.15;2.60;;;22.70;78.70;;;;;;6244540;28;20042;-76
2023/10/22 11:09:27;;;;;;;2.97;1.13;;;22.60;78.40;;;;;;6245065;28;20046;-77
2023/10/22 11:12:29;;;;;;;7.13;1.35;;;22.80;77.80;;;;;;6233947;28;20049;-77
2023/10/22 11:15:32;;;;;;;4.75;3.10;;;23.00;77.70;;;;;;6228790;28;20072;-78
2023/10/22 11:18:53;;;;;;;4.60;1.17;;;22.90;76.40;;;;;;6236018;28;20050;-78
2023/10/22 11:21:57;;;;;;;2.17;0.80;;;22.70;76.00;;;;;;6228604;28;20045;-77
2023/10/22 11:25:02;;;;;;;3.70;0.88;;;22.80;75.90;;;;;;6244240;28;20045;-78
2023/10/22 11:28:06;;;;;;;1.38;0.60;;;22.80;75.00;;;;;;6243268;28;20070;-78
2023/10/22 11:31:23;;;;;;;4.45;0.90;;;22.90;74.80;;;;;;6238324;28;20045;-78
2023/10/22 11:34:26;;;;;;;5.13;0.93;;;22.70;73.70;;;;;;6223353;28;20137;-77
2023/10/22 11:37:37;;;;;;;4.63;2.25;;;22.10;74.60;;;;;;6231044;28;20285;-77
2023/10/22 11:40:40;;;;;;;2.03;0.85;;;21.50;75.10;;;;;;6223179;28;20502;-77
2023/10/22 11:43:43;;;;;;;4.55;1.02;;;21.50;76.30;;;;;;6229154;28;20053;-76
2023/10/22 11:46:44;;;;;;;2.00;1.40;;;21.70;76.00;;;;;;6242378;28;20077;-78
2023/10/22 11:49:46;;;;;;;6.03;1.77;;;22.00;75.20;;;;;;6225947;28;20046;-76
2023/10/22 11:52:51;;;;;;;7.00;1.90;;;21.80;74.50;;;;;;6227213;28;20127;-79
2023/10/22 11:55:53;;;;;;;3.03;1.08;;;21.20;74.60;;;;;;6233050;28;20476;-77
2023/10/22 11:58:55;;;;;;;2.13;1.65;;;20.80;75.60;;;;;;6241728;28;20056;-77
2023/10/22 12:01:57;;;;;;;4.22;1.48;;;20.40;76.50;;;;;;6249872;28;20054;-77
2023/10/22 12:04:58;;;;;;;3.75;1.20;;;20.20;76.60;;;;;;6249476;28;20049;-77
2023/10/22 12:08:01;;;;;;;1.52;1.02;;;20.10;77.10;;;;;;6247052;28;20047;-80
2023/10/22 12:11:03;;;;;;;2.45;0.90;;;20.40;76.60;;;;;;6228760;28;20049;-80
2023/10/22 12:14:05;;;;;;;5.10;0.90;;;20.80;76.10;;;;;;6227619;28;20056;-79
2023/10/22 12:17:07;;;;;;;1.10;0.70;;;21.20;75.00;;;;;;6234883;28;20048;-76
2023/10/22 12:20:09;;;;;;;1.75;1.23;;;21.20;73.90;;;;;;6230160;28;20041;-76
2023/10/22 12:23:12;;;;;;;2.42;1.00;;;21.30;74.10;;;;;;6222971;28;20136;-77
2023/10/22 12:26:14;;;;;;;5.43;1.52;;;21.40;73.60;;;;;;6234684;28;20136;-76
2023/10/22 12:29:16;;;;;;;2.72;0.70;;;21.30;73.80;;;;;;6225512;28;20125;-77
2023/10/22 12:32:18;;;;;;;0.85;0.80;;;21.40;73.90;;;;;;6223638;28;20050;-78
2023/10/22 12:35:20;;;;;;;3.88;1.13;;;21.60;73.50;;;;;;6223454;28;20042;-78
2023/10/22 12:38:23;;;;;;;6.57;1.00;;;21.90;73.20;;;;;;6224022;28;20050;-79
2023/10/22 12:41:25;;;;;;;1.10;0.50;;;22.20;72.10;;;;;;6238687;28;20144;-77
2023/10/22 12:44:27;;;;;;;1.90;1.08;;;22.30;72.40;;;;;;6248791;28;20483;-78
2023/10/22 12:47:29;;;;;;;5.28;1.10;;;22.50;71.30;;;;;;6249654;28;20116;-78
2023/10/22 12:50:31;;;;;;;6.18;1.35;;;22.50;71.00;;;;;;6253093;28;20056;-77
2023/10/22 12:53:34;;;;;;;2.83;0.88;;;22.60;69.50;;;;;;6250694;28;20056;-78
2023/10/22 12:56:36;;;;;;;1.95;0.60;;;22.60;69.00;;;;;;6241784;28;20056;-78
2023/10/22 12:59:39;;;;;;;1.60;0.80;;;22.60;68.60;;;;;;6246042;28;20037;-77
2023/10/22 13:02:40;;;;;;;7.82;0.88;;;22.50;68.50;;;;;;6243609;28;20052;-77
2023/10/22 13:05:43;;;;;;;2.55;1.15;;;22.70;68.60;;;;;;6231087;28;20052;-77
2023/10/22 13:08:46;;;;;;;1.30;0.80;;;22.50;67.10;;;;;;6257109;28;20041;-78
2023/10/22 13:11:47;;;;;;;5.75;1.25;;;22.10;68.10;;;;;;6246652;28;20045;-77
2023/10/22 13:14:49;;;;;;;1.55;0.60;;;21.90;68.50;;;;;;6246017;28;20057;-77
2023/10/22 13:17:51;;;;;;;1.55;0.63;;;21.90;68.80;;;;;;6237808;28;20443;-78
2023/10/22 13:20:52;;;;;;;3.78;1.23;;;21.90;68.10;;;;;;6224263;28;20538;-76
2023/10/22 13:23:55;;;;;;;1.42;0.60;;;21.60;68.70;;;;;;6233981;28;20052;-77
2023/10/22 13:26:57;;;;;;;3.38;1.10;;;21.20;69.40;;;;;;6238768;28;20398;-76
2023/10/22 13:30:00;;;;;;;3.53;1.05;;;20.80;70.20;;;;;;6247316;28;20133;-77
2023/10/22 13:33:01;;;;;;;2.10;0.70;;;20.40;70.60;;;;;;6228973;28;20042;-77
2023/10/22 13:36:03;;;;;;;6.18;0.82;;;20.00;71.40;;;;;;6228715;28;20058;-77
2023/10/22 13:39:08;;;;;;;2.67;1.20;;;19.70;71.80;;;;;;6225704;28;20505;-77
2023/10/22 13:42:10;;;;;;;0.93;0.85;;;19.40;72.40;;;;;;6238284;28;20414;-78
2023/10/22 13:45:12;;;;;;;4.15;0.80;;;19.30;73.00;;;;;;6242533;28;20056;-78
2023/10/22 13:48:14;;;;;;;2.50;1.10;;;19.30;72.90;;;;;;6238980;28;20121;-78
2023/10/22 13:51:15;;;;;;;1.88;0.90;;;19.30;72.90;;;;;;6237593;28;20045;-77
2023/10/22 13:54:19;;;;;;;7.20;1.58;;;19.20;73.10;;;;;;6246369;28;20058;-79
2023/10/22 13:57:21;;;;;;;1.95;1.20;;;19.10;73.90;;;;;;6241950;28;20045;-80
2023/10/22 14:00:23;;;;;;;1.80;1.30;;;18.90;74.30;;;;;;6245766;28;20153;-78
2023/10/22 14:03:25;;;;;;;2.85;0.80;;;18.80;75.00;;;;;;6245141;28;20042;-79
2023/10/22 14:06:27;;;;;;;1.20;0.73;;;18.70;75.40;;;;;;6252673;28;20049;-79
2023/10/22 14:09:30;;;;;;;4.65;1.10;;;18.60;75.90;;;;;;6252996;28;20051;-79
2023/10/22 14:12:31;;;;;;;2.50;0.85;;;18.50;76.50;;;;;;6246380;28;20046;-78
2023/10/22 14:15:33;;;;;;;5.07;2.97;;;18.50;76.80;;;;;;6233537;28;20050;-78
2023/10/22 14:18:35;;;;;;;12.35;4.93;;;18.50;76.90;;;;;;6238444;28;20041;-77
2023/10/22 14:21:36;;;;;;;3.05;2.13;;;18.60;77.20;;;;;;6224600;28;20058;-77
2023/10/22 14:24:39;;;;;;;5.28;0.90;;;18.80;77.10;;;;;;6224126;28;20046;-78
2023/10/22 14:27:41;;;;;;;1.48;0.80;;;18.80;76.70;;;;;;6234415;28;20049;-77
2023/10/22 14:30:43;;;;;;;2.65;0.90;;;19.00;76.50;;;;;;6249341;28;20057;-78
2023/10/22 14:33:44;;;;;;;7.78;2.35;;;19.20;76.50;;;;;;6248673;28;20043;-78
2023/10/22 14:36:46;;;;;;;2.45;0.88;;;19.40;75.80;;;;;;6247641;28;20045;-75
2023/10/22 14:39:49;;;;;;;2.08;1.20;;;19.40;75.50;;;;;;6270462;28;20038;-76
2023/10/22 14:42:51;;;;;;;2.65;0.82;;;19.30;75.80;;;;;;6257077;28;20049;-76
2023/10/22 14:45:53;;;;;;;8.05;0.95;;;19.20;76.40;;;;;;6260561;28;20521;-77
2023/10/22 14:48:54;;;;;;;2.30;0.73;;;19.10;76.30;;;;;;6260471;28;20067;-77
2023/10/22 14:51:56;;;;;;;3.35;0.80;;;18.90;76.50;;;;;;6259628;28;20382;-77
2023/10/22 14:54:59;;;;;;;7.85;1.17;;;18.90;76.70;;;;;;6252622;28;20049;-77
2023/10/22 14:58:01;;;;;;;2.65;1.13;;;18.80;76.80;;;;;;6262887;28;20045;-78
2023/10/22 15:01:03;;;;;;;2.72;2.25;;;18.70;76.80;;;;;;6259171;28;20050;-77
2023/10/22 15:04:06;;;;;;;10.73;5.22;;;18.50;77.20;;;;;;6257887;28;20045;-77
2023/10/22 15:07:07;;;;;;;2.78;1.67;;;18.40;77.50;;;;;;6248570;28;20502;-78
2023/10/22 15:10:11;;;;;;;3.50;1.58;;;18.20;77.80;;;;;;6250858;28;20045;-78
2023/10/22 15:13:13;;;;;;;4.00;0.90;;;18.10;78.40;;;;;;6249178;28;20410;-79
2023/10/22 15:16:15;;;;;;;6.88;2.72;;;18.00;79.00;;;;;;6255821;28;20052;-77
2023/10/22 15:19:16;;;;;;;4.45;3.03;;;17.90;79.60;;;;;;6248375;28;20410;-77
2023/10/22 15:22:18;;;;;;;4.95;2.20;;;17.80;79.70;;;;;;6248440;28;20159;-76
2023/10/22 15:25:21;;;;;;;1.40;0.80;;;17.70;80.20;;;;;;6247144;28;20051;-77
2023/10/22 15:28:23;;;;;;;4.30;1.00;;;17.70;80.30;;;;;;6255908;28;20045;-77
2023/10/22 15:31:25;;;;;;;2.15;0.80;;;17.60;80.70;;;;;;6250672;28;20037;-76
2023/10/22 15:34:28;;;;;;;3.72;2.08;;;17.40;81.20;;;;;;6247419;28;20049;-77
2023/10/22 15:37:30;;;;;;;4.63;1.30;;;17.30;81.90;;;;;;6246970;28;20100;-78
2023/10/22 15:40:33;;;;;;;1.38;0.90;;;17.20;82.40;;;;;;6247261;28;20499;-77
2023/10/22 15:43:35;;;;;;;3.53;1.10;;;17.00;83.50;;;;;;6247193;28;20541;-77
2023/10/22 15:46:37;;;;;;;3.10;1.20;;;16.90;83.00;;;;;;6246288;28;20045;-77
2023/10/22 15:49:38;;;;;;;2.80;0.60;;;16.80;83.50;;;;;;6256292;28;20042;-79
2023/10/22 15:52:40;;;;;;;4.75;1.50;;;16.60;83.90;;;;;;6258779;28;20045;-76
2023/10/22 15:55:43;;;;;;;3.33;1.00;;;16.40;84.50;;;;;;6258478;28;20038;-76